Time;durP1;ratioP1;P1;durP2;ratioP2;P2;SDS_P1;SDS_P2;PMS_P1;PMS_P2;Temp;Humidity;BMP_temperature;BMP_pressure;BME280_temperature;BME280_humidity;BME280_pressure;Samples;Min_cycle;Max_cycle;Signal;HPM_P1;HPM_P2
2022/06/27 00:00:06;;;;;;;3.87;2.08;;;;;;;21.27;64.70;98781.66;4363571;32;20158;-71
2022/06/27 00:02:38;;;;;;;2.05;1.70;;;;;;;21.28;64.91;98780.63;4364219;32;20166;-71
2022/06/27 00:05:07;;;;;;;2.83;1.98;;;;;;;21.27;64.94;98784.34;4365587;32;20118;-71
2022/06/27 00:07:34;;;;;;;1.83;1.73;;;;;;;21.31;64.99;98791.91;4365601;32;20091;-71
2022/06/27 00:10:02;;;;;;;2.08;1.55;;;;;;;21.21;65.26;98785.16;4365447;32;20095;-71
2022/06/27 00:12:30;;;;;;;2.97;1.73;;;;;;;21.10;65.78;98791.09;4365700;32;20079;-71
2022/06/27 00:14:58;;;;;;;5.05;2.03;;;;;;;21.03;66.30;98796.44;4365444;32;20075;-71
2022/06/27 00:17:27;;;;;;;2.42;1.80;;;;;;;21.15;67.07;98798.47;4365680;32;20167;-71
2022/06/27 00:19:55;;;;;;;1.60;1.45;;;;;;;21.15;66.19;98796.63;4365341;32;20125;-71
2022/06/27 00:22:22;;;;;;;1.95;1.75;;;;;;;21.06;66.53;98788.03;4365319;32;20122;-71
2022/06/27 00:24:49;;;;;;;2.62;1.75;;;;;;;21.01;66.85;98785.12;4365262;32;20149;-71
2022/06/27 00:27:17;;;;;;;3.17;1.90;;;;;;;20.89;67.43;98792.09;4365424;32;20125;-71
2022/06/27 00:29:44;;;;;;;5.40;1.90;;;;;;;20.81;67.71;98790.47;4365330;32;20102;-71
2022/06/27 00:32:11;;;;;;;1.75;1.65;;;;;;;20.79;67.82;98781.03;4365260;32;20095;-71
2022/06/27 00:34:38;;;;;;;2.33;1.73;;;;;;;20.82;67.66;98780.66;4365101;32;20481;-71
2022/06/27 00:37:05;;;;;;;2.92;2.00;;;;;;;20.82;67.71;98776.13;4365415;32;20535;-71
2022/06/27 00:39:33;;;;;;;1.92;1.62;;;;;;;20.80;67.72;98777.34;4365293;32;20208;-71
2022/06/27 00:42:00;;;;;;;2.72;1.92;;;;;;;20.80;67.83;98785.34;4365156;32;20114;-71
2022/06/27 00:44:40;;;;;;;3.42;1.92;;;;;;;20.78;68.37;98779.41;4365209;32;20110;-71
2022/06/27 00:47:11;;;;;;;4.07;2.10;;;;;;;20.71;68.62;98785.53;4365250;32;20110;-71
2022/06/27 00:49:38;;;;;;;3.70;2.25;;;;;;;20.68;68.08;98790.44;4365370;32;20149;-71
2022/06/27 00:52:11;;;;;;;4.07;2.10;;;;;;;20.69;67.91;98790.22;4365106;32;20091;-71
2022/06/27 00:54:41;;;;;;;3.55;2.30;;;;;;;20.73;67.51;98796.78;4365200;32;20079;-71
2022/06/27 00:57:10;;;;;;;2.78;2.42;;;;;;;20.94;66.45;98789.66;4365295;32;20766;-71
2022/06/27 00:59:38;;;;;;;3.80;2.20;;;;;;;21.16;65.58;98797.44;4350690;32;481474;-71
2022/06/27 01:02:06;;;;;;;3.67;2.55;;;;;;;21.27;65.08;98794.16;4365103;32;20121;-71
2022/06/27 01:04:35;;;;;;;3.08;2.60;;;;;;;21.38;64.70;98801.53;4365194;32;20087;-71
2022/06/27 01:07:07;;;;;;;4.62;2.80;;;;;;;21.41;64.47;98795.78;4364976;32;20118;-71
2022/06/27 01:09:43;;;;;;;3.42;2.92;;;;;;;21.37;64.68;98802.56;4365056;32;20086;-71
2022/06/27 01:12:11;;;;;;;7.00;3.08;;;;;;;21.46;64.57;98797.84;4364999;32;20145;-71
2022/06/27 01:14:38;;;;;;;4.05;2.87;;;;;;;21.57;64.42;98793.75;4364984;32;20122;-71
2022/06/27 01:17:06;;;;;;;4.87;3.08;;;;;;;21.49;64.64;98792.09;4365108;32;20126;-71
2022/06/27 01:19:33;;;;;;;12.48;3.33;;;;;;;21.43;64.80;98788.41;4365113;32;20162;-71
2022/06/27 01:22:08;;;;;;;4.87;3.20;;;;;;;21.43;64.81;98787.59;4365201;32;20099;-71
2022/06/27 01:24:36;;;;;;;4.80;3.20;;;;;;;21.48;64.89;98789.63;4352030;32;20150;-71
2022/06/27 01:27:05;;;;;;;3.80;3.30;;;;;;;21.52;64.63;98786.38;4365242;32;20092;-71
2022/06/27 01:29:32;;;;;;;4.35;3.15;;;;;;;21.57;64.23;98788.41;4365280;32;20102;-71
2022/06/27 01:32:00;;;;;;;4.62;3.03;;;;;;;21.97;62.74;98785.66;4364996;32;20161;-71
2022/06/27 01:34:29;;;;;;;6.93;3.28;;;;;;;21.75;63.13;98791.25;4352163;32;20207;-71
2022/06/27 01:36:57;;;;;;;5.18;2.83;;;;;;;21.71;63.21;98782.03;4364929;32;20095;-71
2022/06/27 01:39:26;;;;;;;7.40;3.03;;;;;;;21.72;63.03;98786.31;4364867;32;20446;-71
2022/06/27 01:41:57;;;;;;;11.30;3.60;;;;;;;21.66;63.24;98787.16;4365091;32;20079;-71
2022/06/27 01:44:27;;;;;;;4.35;2.95;;;;;;;21.69;63.17;98786.75;4365021;32;20154;-71
2022/06/27 01:47:02;;;;;;;3.78;3.03;;;;;;;21.75;62.91;98785.09;4364912;32;20103;-71
2022/06/27 01:49:32;;;;;;;6.22;3.20;;;;;;;21.74;62.63;98778.12;4365187;32;20087;-71
2022/06/27 01:52:03;;;;;;;3.62;3.00;;;;;;;21.69;62.65;98776.06;4365124;32;20095;-71
2022/06/27 01:54:32;;;;;;;5.82;2.75;;;;;;;21.64;63.11;98781.22;4364934;32;20079;-71
2022/06/27 01:57:00;;;;;;;4.55;2.75;;;;;;;21.64;63.03;98775.91;4364796;32;20549;-71
2022/06/27 01:59:28;;;;;;;9.05;3.15;;;;;;;21.68;62.62;98787.78;4364722;32;20103;-71
2022/06/27 02:01:58;;;;;;;25.88;4.40;;;;;;;21.66;62.51;98786.34;4364545;32;20157;-71
2022/06/27 02:04:28;;;;;;;4.35;3.25;;;;;;;21.65;62.64;98774.87;4365054;32;20138;-71
2022/06/27 02:06:55;;;;;;;3.62;2.75;;;;;;;21.75;62.36;98793.91;4364634;32;20099;-71
2022/06/27 02:09:23;;;;;;;5.05;3.28;;;;;;;21.67;62.60;98778.16;4364819;32;20094;-71
2022/06/27 02:11:55;;;;;;;5.25;2.97;;;;;;;21.67;62.68;98782.66;4364595;32;20544;-71
2022/06/27 02:14:23;;;;;;;8.00;3.33;;;;;;;21.67;62.67;98793.34;4365004;32;20097;-71
2022/06/27 02:16:50;;;;;;;7.43;3.20;;;;;;;21.64;62.93;98791.09;4364708;32;20110;-71
2022/06/27 02:19:19;;;;;;;4.87;2.97;;;;;;;21.65;62.93;98790.88;4358517;32;20107;-71
2022/06/27 02:21:47;;;;;;;8.85;3.47;;;;;;;21.75;62.66;98796.56;4364556;32;20087;-71
2022/06/27 02:24:14;;;;;;;3.72;2.92;;;;;;;21.76;62.60;98795.56;4364614;32;20149;-71
2022/06/27 02:26:42;;;;;;;6.50;3.12;;;;;;;21.79;62.59;98794.31;4363955;32;20509;-71
2022/06/27 02:29:10;;;;;;;7.05;3.20;;;;;;;21.76;62.85;98798.22;4351593;32;20106;-71
2022/06/27 02:31:50;;;;;;;4.80;3.10;;;;;;;21.73;62.94;98795.97;4364505;32;20519;-71
2022/06/27 02:34:18;;;;;;;5.47;3.22;;;;;;;21.72;63.18;98801.53;4351549;32;20095;-71
2022/06/27 02:36:47;;;;;;;5.35;3.20;;;;;;;21.73;63.34;98803.16;4364533;32;20158;-71
2022/06/27 02:39:24;;;;;;;4.53;3.20;;;;;;;21.64;63.78;98799.91;4364609;32;20099;-71
2022/06/27 02:41:54;;;;;;;3.65;3.12;;;;;;;21.56;64.25;98797.44;4351203;32;20126;-71
2022/06/27 02:44:26;;;;;;;6.35;3.42;;;;;;;21.53;64.57;98805.84;4364773;32;20075;-71
2022/06/27 02:46:53;;;;;;;7.22;3.20;;;;;;;21.49;64.76;98800.09;4364404;32;20154;-71
2022/06/27 02:49:21;;;;;;;4.90;3.22;;;;;;;21.55;64.57;98801.16;4351412;32;20234;-71
2022/06/27 02:52:10;;;;;;;4.68;3.42;;;;;;;21.54;64.62;98805.63;4364743;32;20103;-71
2022/06/27 02:54:54;;;;;;;3.50;3.20;;;;;;;21.57;64.57;98809.75;4351731;32;20145;-71
2022/06/27 02:57:49;;;;;;;6.53;3.55;;;;;;;21.50;64.84;98808.94;4351437;32;20192;-71
2022/06/27 03:00:29;;;;;;;5.53;3.45;;;;;;;21.44;65.14;98815.91;4306610;33;20179;-71
2022/06/27 03:02:58;;;;;;;5.20;3.60;;;;;;;21.48;65.50;98818.94;4318062;33;20131;-71
2022/06/27 03:05:26;;;;;;;5.25;3.28;;;;;;;21.42;66.18;98817.94;4317900;33;20120;-71
2022/06/27 03:07:54;;;;;;;15.52;4.10;;;;;;;21.28;66.90;98822.44;4315530;33;20111;-71
2022/06/27 03:10:22;;;;;;;4.45;3.37;;;;;;;21.20;67.46;98826.13;4317619;33;20175;-71
2022/06/27 03:12:50;;;;;;;4.78;3.67;;;;;;;21.07;68.43;98834.97;4318139;33;20147;-71
2022/06/27 03:15:17;;;;;;;6.05;3.60;;;;;;;21.04;69.00;98831.88;4318000;33;20113;-71
2022/06/27 03:17:44;;;;;;;6.37;3.90;;;;;;;21.15;68.60;98833.09;4318084;33;20112;-71
2022/06/27 03:20:12;;;;;;;13.85;3.45;;;;;;;21.10;69.04;98831.03;4317887;33;20133;-71
2022/06/27 03:22:42;;;;;;;8.82;3.33;;;;;;;21.16;69.00;98840.06;4317861;33;20108;-71
2022/06/27 03:25:09;;;;;;;5.45;3.40;;;;;;;21.16;68.99;98840.06;4317997;33;20108;-71
2022/06/27 03:27:37;;;;;;;8.45;3.97;;;;;;;21.23;69.11;98840.91;4317881;33;20146;-71
2022/06/27 03:30:05;;;;;;;8.88;3.60;;;;;;;21.19;69.14;98845.00;4318004;33;20517;-71
2022/06/27 03:32:32;;;;;;;5.03;3.60;;;;;;;21.28;68.69;98843.75;4318012;33;20579;-71
2022/06/27 03:35:00;;;;;;;7.85;3.37;;;;;;;21.39;68.48;98845.81;4317942;33;20462;-71
2022/06/27 03:37:29;;;;;;;5.20;3.37;;;;;;;21.40;68.28;98846.62;4342898;32;20667;-72
2022/06/27 03:39:57;;;;;;;5.78;3.40;;;;;;;21.40;68.43;98847.44;4364274;32;20169;-71
2022/06/27 03:42:24;;;;;;;4.25;3.45;;;;;;;21.47;68.12;98844.78;4364275;32;20160;-71
2022/06/27 03:44:51;;;;;;;4.50;3.47;;;;;;;21.47;68.23;98846.62;4364091;32;20082;-71
2022/06/27 03:47:19;;;;;;;7.90;3.55;;;;;;;21.51;67.96;98831.91;4364213;32;20457;-71
2022/06/27 03:50:01;;;;;;;6.05;3.30;;;;;;;21.58;67.75;98840.72;4364287;32;20107;-71
2022/06/27 03:52:29;;;;;;;7.75;3.72;;;;;;;21.56;67.81;98843.59;4363970;32;20457;-71
2022/06/27 03:54:57;;;;;;;6.47;3.40;;;;;;;21.52;67.83;98853.00;4364028;32;20161;-71
2022/06/27 03:57:24;;;;;;;9.10;3.28;;;;;;;21.71;67.39;98848.69;4364160;32;20170;-71
2022/06/27 03:59:53;;;;;;;5.40;3.20;;;;;;;21.75;67.31;98847.25;4364116;32;20107;-71
2022/06/27 04:02:21;;;;;;;7.85;3.28;;;;;;;21.76;67.21;98846.22;4363586;32;20083;-72
2022/06/27 04:04:49;;;;;;;8.65;3.78;;;;;;;21.73;67.12;98846.62;4363939;32;20114;-71
2022/06/27 04:07:17;;;;;;;6.62;3.40;;;;;;;21.83;66.91;98850.72;4363933;32;20091;-71
2022/06/27 04:09:44;;;;;;;6.95;4.43;;;;;;;21.87;66.87;98858.09;4350125;32;20154;-71
2022/06/27 04:12:12;;;;;;;5.12;3.42;;;;;;;21.93;66.45;98856.44;4363731;32;20114;-71
2022/06/27 04:14:41;;;;;;;8.60;3.35;;;;;;;22.00;66.57;98859.94;4363758;32;20103;-71
2022/06/27 04:17:10;;;;;;;4.97;3.50;;;;;;;21.98;66.42;98860.13;4363835;32;20148;-71
2022/06/27 04:19:39;;;;;;;9.05;3.28;;;;;;;22.10;65.91;98868.28;4363743;32;20162;-71
2022/06/27 04:22:08;;;;;;;6.78;3.47;;;;;;;22.12;65.91;98863.59;4363714;32;20166;-71
2022/06/27 04:24:37;;;;;;;4.87;3.78;;;;;;;22.13;65.76;98870.56;4363803;32;20103;-71
2022/06/27 04:27:05;;;;;;;5.12;3.10;;;;;;;22.20;65.45;98877.72;4363502;32;20107;-71
2022/06/27 04:29:33;;;;;;;5.75;2.97;;;;;;;22.43;65.18;98874.59;4363413;32;20151;-71
2022/06/27 04:32:00;;;;;;;14.05;3.50;;;;;;;22.50;64.98;98873.53;4363511;32;20164;-71
2022/06/27 04:34:28;;;;;;;4.12;3.67;;;;;;;22.62;64.71;98887.03;4363630;32;20150;-71
2022/06/27 04:36:55;;;;;;;6.50;3.35;;;;;;;22.48;64.07;98872.09;4363552;32;20538;-71
2022/06/27 04:39:23;;;;;;;5.10;3.08;;;;;;;22.54;64.51;98875.78;4363557;32;20090;-71
2022/06/27 04:41:52;;;;;;;5.45;3.22;;;;;;;22.55;64.09;98864.06;4363328;32;20163;-71
2022/06/27 04:44:20;;;;;;;7.12;3.17;;;;;;;22.46;64.25;98871.50;4363443;32;20171;-71
2022/06/27 04:46:48;;;;;;;6.87;3.17;;;;;;;22.61;64.07;98871.22;4363207;32;20095;-71
2022/06/27 04:49:18;;;;;;;3.65;3.33;;;;;;;22.59;64.10;98871.44;4364607;32;20421;-71
2022/06/27 04:51:48;;;;;;;6.80;3.10;;;;;;;22.86;63.15;98866.78;4365410;32;20092;-71
2022/06/27 04:54:18;;;;;;;4.82;3.35;;;;;;;22.82;63.23;98875.44;4365221;32;20075;-71
2022/06/27 04:56:46;;;;;;;9.07;3.47;;;;;;;22.81;63.20;98865.78;4365202;32;20103;-72
2022/06/27 04:59:13;;;;;;;7.37;3.28;;;;;;;23.04;62.52;98878.59;4365599;32;20107;-72
2022/06/27 05:05:11;;;;;;;4.82;3.12;;;;;;;23.18;62.03;98885.53;4365089;32;20149;-71
2022/06/27 05:07:39;;;;;;;6.03;3.12;;;;;;;23.36;61.83;98890.13;4365377;32;20335;-71
2022/06/27 05:10:08;;;;;;;3.58;2.90;;;;;;;23.48;61.15;98890.25;4365133;32;20465;-71
2022/06/27 05:12:35;;;;;;;4.18;2.80;;;;;;;23.54;60.80;98884.00;4365122;32;20441;-71
2022/06/27 05:15:03;;;;;;;4.97;3.40;;;;;;;23.65;60.82;98884.31;4365193;32;20099;-71
2022/06/27 05:17:30;;;;;;;9.60;3.15;;;;;;;23.61;60.92;98885.81;4364979;32;20090;-71
2022/06/27 05:19:57;;;;;;;6.03;2.90;;;;;;;23.62;60.94;98887.44;4365187;32;20110;-71
2022/06/27 05:22:25;;;;;;;8.10;2.78;;;;;;;23.65;60.78;98887.84;4364509;32;20079;-71
2022/06/27 05:24:53;;;;;;;3.33;2.97;;;;;;;23.76;60.25;98880.94;4365278;32;20166;-71
2022/06/27 05:27:22;;;;;;;6.47;3.45;;;;;;;23.76;59.94;98878.25;4365273;32;20159;-71
2022/06/27 05:29:50;;;;;;;8.35;3.20;;;;;;;23.71;59.70;98881.59;4365310;32;20106;-71
2022/06/27 05:32:19;;;;;;;4.97;3.03;;;;;;;23.79;59.73;98882.38;4365146;32;20095;-71
2022/06/27 05:34:48;;;;;;;7.87;3.05;;;;;;;23.69;60.12;98886.34;4364858;32;20133;-71
2022/06/27 05:40:46;;;;;;;5.65;3.60;;;;;;;23.84;59.58;98886.00;4361515;32;20200;-72
2022/06/27 05:43:14;;;;;;;6.50;3.50;;;;;;;24.05;59.31;98892.00;4364838;32;20099;-71
2022/06/27 05:45:41;;;;;;;4.90;3.20;;;;;;;24.13;59.54;98889.03;4364696;32;20150;-71
2022/06/27 05:51:41;;;;;;;7.65;3.35;;;;;;;24.37;58.76;98886.50;4365054;32;20154;-72
2022/06/27 05:54:09;;;;;;;6.10;3.30;;;;;;;24.51;58.46;98892.50;4365031;32;20121;-71
2022/06/27 05:56:36;;;;;;;6.18;3.25;;;;;;;24.57;58.46;98903.16;4365087;32;20554;-71
2022/06/27 05:59:04;;;;;;;5.00;3.35;;;;;;;24.83;57.23;98895.00;4364796;32;20694;-71
2022/06/27 06:01:33;;;;;;;10.38;4.45;;;;;;;24.96;56.77;98895.66;4363971;32;20129;-71
2022/06/27 06:04:00;;;;;;;4.37;3.05;;;;;;;25.10;56.94;98901.66;4364724;32;20107;-71
2022/06/27 06:06:28;;;;;;;4.80;3.05;;;;;;;25.19;56.97;98899.44;4365028;32;20113;-71
2022/06/27 06:08:57;;;;;;;5.45;3.22;;;;;;;25.01;56.85;98902.19;4365000;32;20125;-71
2022/06/27 06:11:24;;;;;;;5.07;2.97;;;;;;;25.15;56.68;98906.34;4364474;32;20548;-72
2022/06/27 06:13:52;;;;;;;25.17;3.62;;;;;;;25.13;56.09;98919.13;4364865;32;20426;-71
2022/06/27 06:16:20;;;;;;;9.00;3.85;;;;;;;25.22;55.87;98909.72;4364545;32;20146;-72
2022/06/27 06:18:54;;;;;;;7.20;3.60;;;;;;;25.20;56.19;98917.19;4364543;32;20122;-71
2022/06/27 06:21:22;;;;;;;11.05;2.97;;;;;;;25.47;56.07;98916.81;4363190;32;20117;-72
2022/06/27 06:27:21;;;;;;;3.72;3.00;;;;;;;25.79;53.81;98921.84;4364400;32;20108;-71
2022/06/27 06:29:49;;;;;;;7.37;2.92;;;;;;;25.82;54.16;98929.44;4364452;32;20161;-71
2022/06/27 06:32:16;;;;;;;8.18;3.40;;;;;;;25.81;53.67;98922.44;4364530;32;20448;-71
2022/06/27 06:34:43;;;;;;;9.88;4.30;;;;;;;25.76;53.46;98928.50;4364504;32;20091;-71
2022/06/27 06:37:13;;;;;;;7.28;3.30;;;;;;;25.83;55.09;98933.78;4364626;32;20111;-72
2022/06/27 06:39:40;;;;;;;9.05;3.60;;;;;;;25.68;53.30;98928.84;4364669;32;20552;-71
2022/06/27 06:42:07;;;;;;;12.00;3.20;;;;;;;25.89;52.55;98935.53;4364708;32;20535;-71
2022/06/27 06:48:17;;;;;;;7.05;3.60;;;;;;;26.03;53.12;98928.06;4364378;32;20154;-71
2022/06/27 06:50:45;;;;;;;12.57;3.75;;;;;;;26.32;52.29;98928.16;4364431;32;20083;-71
2022/06/27 06:53:12;;;;;;;15.02;5.18;;;;;;;26.20;53.27;98939.72;4364285;32;20169;-71
2022/06/27 06:55:40;;;;;;;6.20;3.33;;;;;;;26.32;53.45;98931.66;4364445;32;20099;-71
2022/06/27 06:58:08;;;;;;;10.75;4.32;;;;;;;26.47;52.61;98939.22;4364203;32;20086;-72
2022/06/27 07:00:37;;;;;;;15.00;4.25;;;;;;;26.63;52.16;98929.62;4364174;32;20259;-71
2022/06/27 07:03:05;;;;;;;41.58;8.27;;;;;;;26.68;52.31;98932.41;4364064;32;20121;-71
2022/06/27 07:05:33;;;;;;;10.35;3.62;;;;;;;26.97;51.63;98926.25;4364103;32;20473;-71
2022/06/27 07:08:01;;;;;;;9.93;3.95;;;;;;;26.90;51.39;98929.06;4364210;32;20150;-72
2022/06/27 07:10:28;;;;;;;6.30;3.40;;;;;;;27.02;51.68;98931.72;4363962;32;20102;-72
2022/06/27 07:12:56;;;;;;;8.50;3.30;;;;;;;27.16;50.69;98924.16;4350486;32;20133;-72
2022/06/27 07:15:23;;;;;;;5.93;3.20;;;;;;;27.04;51.09;98933.09;4364205;32;20083;-71
2022/06/27 07:17:52;;;;;;;9.77;4.12;;;;;;;26.76;50.59;98933.09;4364164;32;20078;-72
2022/06/27 07:20:20;;;;;;;9.00;3.50;;;;;;;26.85;50.86;98932.47;4364055;32;20143;-71
2022/06/27 07:22:49;;;;;;;5.80;3.30;;;;;;;26.87;50.94;98926.84;4363699;32;20115;-71
2022/06/27 07:25:17;;;;;;;5.37;3.05;;;;;;;26.84;51.00;98936.22;4363499;32;20161;-71
2022/06/27 07:27:46;;;;;;;6.53;3.70;;;;;;;27.13;50.93;98932.72;4363731;32;20091;-71
2022/06/27 07:30:14;;;;;;;12.77;4.00;;;;;;;26.92;50.54;98935.84;4364014;32;20166;-72
2022/06/27 07:32:42;;;;;;;11.20;3.53;;;;;;;26.90;51.04;98939.81;4364266;32;20461;-71
2022/06/27 07:35:12;;;;;;;6.47;3.22;;;;;;;27.24;50.30;98939.91;4364018;32;20355;-71
2022/06/27 07:37:48;;;;;;;4.12;2.92;;;;;;;27.29;51.76;98941.87;4363953;32;20484;-71
2022/06/27 07:40:17;;;;;;;5.60;2.95;;;;;;;27.57;49.05;98943.72;4363985;32;20571;-71
2022/06/27 07:42:49;;;;;;;4.85;4.20;;;;;;;27.75;49.16;98956.94;4363851;32;20109;-71
2022/06/27 07:45:21;;;;;;;4.20;3.20;;;;;;;27.87;48.36;98945.25;4363788;32;20090;-71
2022/06/27 07:47:49;;;;;;;5.15;3.12;;;;;;;28.02;47.79;98953.59;4364105;32;20087;-71
2022/06/27 07:53:19;;;;;;;5.93;3.10;;;;;;;27.93;48.02;98955.88;4363780;32;20087;-72
2022/06/27 07:59:10;;;;;;;8.38;3.30;;;;;;;27.87;47.47;98958.72;4363673;32;20287;-72
2022/06/27 08:01:37;;;;;;;12.88;3.40;;;;;;;28.35;47.84;98965.37;4363632;32;20499;-72
2022/06/27 08:04:07;;;;;;;6.15;3.17;;;;;;;28.78;47.60;98963.78;4363456;32;20103;-72
2022/06/27 08:06:35;;;;;;;6.30;3.30;;;;;;;28.92;46.33;98963.38;4363636;32;20117;-72
2022/06/27 08:09:06;;;;;;;4.95;3.40;;;;;;;28.92;44.88;98963.38;4363571;32;20739;-71
2022/06/27 08:11:42;;;;;;;4.93;4.10;;;;;;;28.71;45.89;98967.72;4363450;32;20178;-71
2022/06/27 08:14:17;;;;;;;7.40;3.10;;;;;;;28.79;44.90;98975.38;4363422;32;20095;-72
2022/06/27 08:16:49;;;;;;;5.70;3.22;;;;;;;28.72;44.89;98972.91;4363475;32;20083;-72
2022/06/27 08:19:18;;;;;;;7.93;3.42;;;;;;;28.74;45.39;98978.84;4363419;32;20145;-72
2022/06/27 08:21:47;;;;;;;8.13;3.65;;;;;;;28.99;44.97;98978.31;4363334;32;20173;-72
2022/06/27 08:24:16;;;;;;;8.45;3.45;;;;;;;29.28;45.23;98977.28;4363610;32;20087;-72
2022/06/27 08:30:03;;;;;;;7.87;3.47;;;;;;;29.42;43.89;98977.69;4365191;32;20101;-72
2022/06/27 08:32:30;;;;;;;9.23;3.12;;;;;;;29.62;43.78;98982.47;4365083;32;20158;-71
2022/06/27 08:34:58;;;;;;;6.65;3.45;;;;;;;29.84;45.13;98990.50;4365268;32;20099;-71
2022/06/27 08:37:26;;;;;;;6.03;3.92;;;;;;;29.87;45.20;98992.66;4365300;32;20161;-72
2022/06/27 08:39:54;;;;;;;4.30;3.42;;;;;;;30.00;43.98;98988.72;4365083;32;20091;-72
2022/06/27 08:42:21;;;;;;;7.35;3.33;;;;;;;30.25;44.90;98980.78;4365318;32;20095;-72
2022/06/27 08:44:49;;;;;;;5.18;2.90;;;;;;;30.21;42.81;98985.06;4365249;32;20166;-72
2022/06/27 08:50:48;;;;;;;5.10;3.22;;;;;;;30.41;42.45;98975.47;4365033;32;20138;-72
2022/06/27 08:53:17;;;;;;;6.82;3.17;;;;;;;30.51;42.59;98972.00;4351692;32;20210;-72
2022/06/27 08:55:48;;;;;;;7.10;3.17;;;;;;;30.14;41.37;98984.47;4365030;32;20132;-71
2022/06/27 08:58:16;;;;;;;4.60;2.72;;;;;;;30.07;42.73;98976.62;4364972;32;20527;-71
2022/06/27 09:00:48;;;;;;;6.85;2.90;;;;;;;30.40;41.99;98971.16;4365100;32;20577;-71
2022/06/27 09:03:20;;;;;;;3.67;2.72;;;;;;;30.44;41.57;98980.37;4365117;32;20083;-71
2022/06/27 09:05:58;;;;;;;3.60;3.00;;;;;;;30.52;42.06;98968.22;4365379;32;20851;-71
2022/06/27 09:08:27;;;;;;;6.53;3.10;;;;;;;30.44;40.95;98962.25;4364880;32;20471;-71
2022/06/27 09:10:56;;;;;;;10.52;3.37;;;;;;;30.34;41.15;98970.28;4364744;32;20087;-71
2022/06/27 09:13:25;;;;;;;8.25;3.20;;;;;;;30.34;40.61;98969.47;4364898;32;20103;-71
2022/06/27 09:15:59;;;;;;;9.13;3.58;;;;;;;30.62;41.37;98963.69;4364964;32;20090;-71
2022/06/27 09:18:36;;;;;;;7.70;3.00;;;;;;;30.84;40.66;98960.00;4364809;32;20121;-71
2022/06/27 09:21:11;;;;;;;8.30;3.40;;;;;;;30.85;40.90;98967.00;4364903;32;20075;-71
2022/06/27 09:23:58;;;;;;;6.45;2.70;;;;;;;30.96;39.88;98960.56;4364942;32;20095;-71
2022/06/27 09:26:31;;;;;;;6.65;3.10;;;;;;;31.01;40.31;98957.09;4365036;32;20082;-71
2022/06/27 09:29:06;;;;;;;7.45;2.50;;;;;;;31.37;39.48;98957.16;4364776;32;20153;-71
2022/06/27 09:31:42;;;;;;;6.37;2.53;;;;;;;31.32;39.57;98949.00;4364920;32;20075;-71
2022/06/27 09:34:23;;;;;;;3.47;2.45;;;;;;;31.46;38.29;98957.41;4364549;32;20083;-71
2022/06/27 09:36:55;;;;;;;2.53;2.25;;;;;;;31.34;38.94;98954.16;4364590;32;20132;-71
2022/06/27 09:39:32;;;;;;;3.37;2.33;;;;;;;31.45;36.72;98948.47;4364890;32;20141;-71
2022/06/27 09:42:08;;;;;;;4.05;2.15;;;;;;;31.50;40.51;98944.94;4364908;32;20117;-71
2022/06/27 09:44:45;;;;;;;5.45;2.70;;;;;;;31.19;36.30;98953.06;4364827;32;20201;-71
2022/06/27 09:47:18;;;;;;;4.97;2.40;;;;;;;31.42;37.87;98942.78;4364915;32;20092;-72
2022/06/27 09:49:52;;;;;;;5.10;2.40;;;;;;;31.70;38.14;98943.34;4364834;32;20106;-71
2022/06/27 09:52:24;;;;;;;6.57;2.65;;;;;;;31.52;37.05;98942.78;4364892;32;20195;-71
2022/06/27 09:54:53;;;;;;;13.60;2.78;;;;;;;32.07;39.03;98942.19;4364690;32;20095;-71
2022/06/27 09:57:21;;;;;;;3.50;2.62;;;;;;;32.33;37.02;98930.22;4364731;32;20091;-71
2022/06/27 09:59:50;;;;;;;5.70;2.40;;;;;;;32.11;35.60;98932.47;4364520;32;20433;-71
2022/06/27 10:02:21;;;;;;;3.97;2.70;;;;;;;31.95;36.33;98940.63;4364572;32;20107;-71
2022/06/27 10:04:49;;;;;;;10.02;2.50;;;;;;;31.76;36.40;98937.66;4364848;32;20083;-71
2022/06/27 10:07:17;;;;;;;10.57;2.95;;;;;;;32.15;35.46;98933.56;4364590;32;20121;-71
2022/06/27 10:09:48;;;;;;;5.80;2.87;;;;;;;32.21;36.17;98928.94;4364662;32;20168;-71
2022/06/27 10:12:31;;;;;;;5.15;2.28;;;;;;;31.97;36.95;98932.22;4349830;33;20076;-71
2022/06/27 10:15:10;;;;;;;5.32;2.15;;;;;;;32.40;36.28;98924.50;4349871;33;20117;-71
2022/06/27 10:17:46;;;;;;;3.17;2.28;;;;;;;32.51;35.48;98923.38;4349745;33;20130;-71
2022/06/27 10:20:26;;;;;;;5.40;2.20;;;;;;;32.42;36.01;98921.53;4349562;33;20137;-71
2022/06/27 10:23:03;;;;;;;6.22;2.30;;;;;;;32.39;35.23;98917.47;4336452;33;20470;-71
2022/06/27 10:25:30;;;;;;;3.97;2.35;;;;;;;32.34;34.07;98917.47;4349697;33;20079;-71
2022/06/27 10:28:10;;;;;;;11.85;2.37;;;;;;;32.31;35.04;98918.03;4349531;33;20169;-71
2022/06/27 10:30:42;;;;;;;7.07;2.40;;;;;;;31.99;34.57;98916.47;4349752;33;20440;-71
2022/06/27 10:33:29;;;;;;;6.75;2.65;;;;;;;32.09;35.36;98911.03;4349755;33;20416;-71
2022/06/27 10:36:03;;;;;;;4.40;2.47;;;;;;;32.14;34.96;98910.22;4303541;33;20156;-71
2022/06/27 10:38:33;;;;;;;5.90;2.33;;;;;;;31.96;35.63;98909.72;4303560;33;20104;-71
2022/06/27 10:41:02;;;;;;;4.50;2.95;;;;;;;32.00;35.76;98913.50;4303327;33;20475;-71
2022/06/27 10:43:41;;;;;;;4.45;2.50;;;;;;;32.27;35.82;98903.44;4303332;33;20504;-71
2022/06/27 10:46:11;;;;;;;4.32;2.45;;;;;;;32.48;34.25;98904.16;4303093;33;20518;-71
2022/06/27 10:48:40;;;;;;;5.75;2.80;;;;;;;32.82;35.86;98904.25;4303527;33;20687;-71
2022/06/27 10:51:24;;;;;;;5.00;2.70;;;;;;;32.18;34.76;98895.06;4303447;33;20114;-71
2022/06/27 10:54:04;;;;;;;4.28;2.28;;;;;;;32.56;35.33;98898.13;4303437;33;20617;-71
2022/06/27 10:56:44;;;;;;;6.07;2.30;;;;;;;33.18;35.65;98897.78;4303475;33;20400;-71
2022/06/27 10:59:14;;;;;;;4.85;2.53;;;;;;;33.28;31.96;98889.59;4303357;33;20121;-71
2022/06/27 11:01:57;;;;;;;6.90;2.50;;;;;;;33.42;34.13;98895.16;4303428;33;20115;-72
2022/06/27 11:04:25;;;;;;;;;;;;;;;33.51;33.56;98887.22;4303651;33;20088;-71
2022/06/27 11:06:58;;;;;;;6.40;3.78;;;;;;;33.35;32.19;98884.62;4303192;33;20370;-71
2022/06/27 11:09:47;;;;;;;5.03;2.35;;;;;;;33.23;32.59;98893.16;4303283;33;20160;-72
2022/06/27 11:12:20;;;;;;;3.75;2.70;;;;;;;33.81;31.97;98890.75;4323822;32;20095;-71
2022/06/27 11:14:48;;;;;;;9.55;2.75;;;;;;;33.75;32.32;98879.94;4364268;32;20095;-71
2022/06/27 11:17:34;;;;;;;8.80;3.12;;;;;;;34.07;32.50;98875.78;4364151;32;20121;-71
2022/06/27 11:20:28;;;;;;;8.45;2.60;;;;;;;33.87;32.10;98862.41;4364008;32;20457;-71
2022/06/27 11:23:06;;;;;;;7.68;2.40;;;;;;;33.37;31.48;98859.91;4364201;32;20079;-71
2022/06/27 11:25:34;;;;;;;5.35;2.50;;;;;;;33.41;31.91;98869.91;4364005;32;20575;-72
2022/06/27 11:33:39;;;;;;;6.05;2.17;;;;;;;34.15;29.99;98863.47;4364068;32;20098;-72
2022/06/27 11:36:11;;;;;;;4.18;2.45;;;;;;;34.39;31.01;98849.06;4350755;32;20484;-71
2022/06/27 11:38:44;;;;;;;5.28;2.60;;;;;;;34.19;29.44;98858.22;4363991;32;20154;-71
2022/06/27 11:41:12;;;;;;;5.53;2.28;;;;;;;34.62;29.81;98860.97;4364103;32;20122;-72
2022/06/27 11:47:09;;;;;;;8.60;2.45;;;;;;;34.27;31.41;98863.06;4363834;32;20106;-72
2022/06/27 11:49:39;;;;;;;4.32;2.42;;;;;;;35.00;29.25;98852.78;4363914;32;20095;-71
2022/06/27 11:52:12;;;;;;;5.80;2.37;;;;;;;34.74;30.43;98842.28;4363794;32;20133;-71
2022/06/27 11:54:42;;;;;;;7.80;2.58;;;;;;;34.16;29.86;98854.22;4363776;32;20079;-71
2022/06/27 11:57:33;;;;;;;8.23;2.65;;;;;;;34.14;28.55;98845.50;4363666;32;20099;-72
2022/06/27 12:00:04;;;;;;;4.50;2.30;;;;;;;34.22;31.11;98844.88;4363477;32;20111;-71
2022/06/27 12:06:14;;;;;;;2.97;2.40;;;;;;;34.98;30.09;98842.19;4363734;32;20462;-72
2022/06/27 12:08:59;;;;;;;4.47;2.40;;;;;;;35.64;29.51;98827.75;4363351;32;20067;-72
2022/06/27 12:11:28;;;;;;;2.25;2.00;;;;;;;35.82;28.68;98821.41;4363432;32;20153;-72
2022/06/27 12:13:59;;;;;;;3.87;2.50;;;;;;;36.16;28.38;98827.56;4350228;32;20460;-72
2022/06/27 12:16:27;;;;;;;5.75;2.17;;;;;;;35.93;28.72;98823.94;4363692;32;20145;-72
2022/06/27 12:18:54;;;;;;;5.60;2.67;;;;;;;35.23;28.66;98815.62;4349904;32;20086;-72
2022/06/27 12:21:22;;;;;;;6.62;2.25;;;;;;;34.12;29.98;98826.78;4362707;32;20163;-72
2022/06/27 12:23:50;;;;;;;4.35;2.15;;;;;;;34.61;29.97;98822.06;4362930;32;20433;-72
2022/06/27 12:26:17;;;;;;;3.37;2.05;;;;;;;35.14;30.07;98823.72;4363270;32;20087;-72
2022/06/27 12:32:14;;;;;;;4.97;2.05;;;;;;;35.96;28.74;98815.97;4363274;32;20122;-72
2022/06/27 12:34:42;;;;;;;4.65;2.20;;;;;;;35.96;27.67;98810.53;4363392;32;20106;-72